Time;durP1;ratioP1;P1;durP2;ratioP2;P2;SDS_P1;SDS_P2;PMS_P1;PMS_P2;Temp;Humidity;BMP_temperature;BMP_pressure;BME280_temperature;BME280_humidity;BME280_pressure;Samples;Min_cycle;Max_cycle;Signal;HPM_P1;HPM_P2
2022/12/10 00:01:43;;;;;;;11.57;6.95;;;;;;;6.89;100.00;97688.18;4381845;80;28511;-87
2022/12/10 00:07:45;;;;;;;12.03;6.80;;;;;;;6.62;100.00;97686.91;4435888;80;28536;-86
2022/12/10 00:13:47;;;;;;;11.25;6.85;;;;;;;6.57;100.00;97692.67;4462490;79;28543;-89
2022/12/10 00:19:48;;;;;;;10.05;6.05;;;;;;;6.93;100.00;97704.00;4427245;78;28540;-88
2022/12/10 00:25:49;;;;;;;9.23;5.60;;;;;;;7.02;100.00;97705.23;4440155;78;28537;-87
2022/12/10 00:31:51;;;;;;;9.18;5.65;;;;;;;7.31;99.83;97699.02;4417312;78;28485;-88
2022/12/10 00:37:52;;;;;;;8.73;5.25;;;;;;;7.25;99.91;97706.14;4393613;80;28573;-87
2022/12/10 00:43:53;;;;;;;7.50;5.00;;;;;;;7.06;100.00;97706.91;4439655;80;28544;-88
2022/12/10 00:49:54;;;;;;;8.70;5.62;;;;;;;6.50;100.00;97711.48;4471431;78;28540;-86
2022/12/10 00:55:55;;;;;;;6.33;4.55;;;;;;;7.13;99.80;97713.43;4399659;80;28504;-87
2022/12/10 01:01:57;;;;;;;9.60;5.45;;;;;;;6.62;100.00;97704.78;4379680;80;28550;-86
2022/12/10 01:07:58;;;;;;;7.17;5.05;;;;;;;6.72;100.00;97717.50;4336686;81;28526;-88
2022/12/10 01:13:59;;;;;;;8.93;5.17;;;;;;;7.05;100.00;97721.33;4358663;80;28551;-86
2022/12/10 01:20:00;;;;;;;7.28;4.87;;;;;;;7.20;98.26;97726.92;4373418;81;28525;-87
2022/12/10 01:26:04;;;;;;;8.05;5.78;;;;;;;7.50;96.42;97722.34;4366576;81;28474;-87
2022/12/10 01:32:05;;;;;;;8.25;5.28;;;;;;;7.27;97.21;97718.74;4350134;81;28495;-86
2022/12/10 01:38:06;;;;;;;7.37;5.05;;;;;;;7.58;95.26;97735.83;4355760;80;28501;-85
2022/12/10 01:44:11;;;;;;;6.67;4.78;;;;;;;7.67;94.37;97747.73;4343561;81;28524;-86
2022/12/10 01:50:12;;;;;;;7.53;5.20;;;;;;;7.80;92.78;97743.90;4363705;81;28483;-85
2022/12/10 01:56:16;;;;;;;8.35;5.37;;;;;;;7.81;92.84;97742.88;4353230;80;28525;-86
2022/12/10 02:02:40;;;;;;;8.78;4.70;;;;;;;7.71;92.55;97752.08;4332957;81;28523;-85
2022/12/10 02:08:46;;;;;;;7.53;5.20;;;;;;;7.71;92.09;97745.39;4352737;81;28624;-86
2022/12/10 02:14:59;;;;;;;7.92;5.25;;;;;;;7.76;91.95;97750.30;4370258;81;28558;-87
2022/12/10 02:21:03;;;;;;;9.25;5.30;;;;;;;7.86;90.43;97746.95;4336060;80;28602;-85
2022/12/10 02:27:08;;;;;;;8.50;5.60;;;;;;;7.87;89.58;97759.27;4351456;81;28517;-86
2022/12/10 02:33:10;;;;;;;7.28;4.95;;;;;;;7.55;92.62;97746.47;4369614;81;28555;-85
2022/12/10 02:39:13;;;;;;;8.58;5.55;;;;;;;7.86;90.27;97757.65;4352475;80;28553;-86
2022/12/10 02:45:17;;;;;;;8.25;5.20;;;;;;;8.15;87.02;97764.73;4352859;80;28537;-86
2022/12/10 02:51:18;;;;;;;8.53;5.25;;;;;;;7.98;88.59;97774.96;4343361;81;28472;-86
2022/12/10 02:57:36;;;;;;;7.25;5.08;;;;;;;8.21;86.06;97783.30;4371230;80;28494;-86
2022/12/10 03:03:41;;;;;;;8.98;5.25;;;;;;;8.21;85.89;97775.81;4346502;81;28517;-86
2022/12/10 03:09:48;;;;;;;6.40;4.50;;;;;;;8.08;87.22;97777.79;4381465;81;42551;-86
2022/12/10 03:15:51;;;;;;;7.17;5.20;;;;;;;8.09;86.25;97768.70;4403642;81;28498;-84
2022/12/10 03:21:52;;;;;;;7.58;5.28;;;;;;;8.27;84.76;97780.70;4400904;81;28542;-83
2022/12/10 03:27:55;;;;;;;7.83;5.30;;;;;;;8.08;86.39;97781.80;4405535;81;28478;-83
2022/12/10 03:33:57;;;;;;;7.22;5.22;;;;;;;7.93;86.22;97786.91;4379371;81;28573;-83
2022/12/10 03:39:58;;;;;;;7.95;5.40;;;;;;;8.10;85.93;97789.56;4408793;81;28573;-83
2022/12/10 03:46:00;;;;;;;7.40;5.15;;;;;;;8.07;86.68;97792.75;4385347;81;28555;-83
2022/12/10 03:52:01;;;;;;;7.42;5.33;;;;;;;8.04;85.56;97787.89;4375089;81;28555;-85
2022/12/10 03:58:02;;;;;;;7.95;5.35;;;;;;;8.18;85.76;97795.84;4384303;81;28474;-85
2022/12/10 04:04:04;;;;;;;8.85;5.08;;;;;;;8.05;85.48;97799.67;4381119;81;28551;-85
2022/12/10 04:10:07;;;;;;;7.55;5.35;;;;;;;8.02;86.67;97808.20;4386640;81;28524;-85
2022/12/10 04:16:26;;;;;;;9.10;5.75;;;;;;;8.02;86.65;97824.78;4382758;80;28559;-83
2022/12/10 04:28:47;;;;;;;10.82;6.70;;;;;;;8.30;83.89;97849.83;4353755;80;28548;-86
2022/12/10 04:34:49;;;;;;;9.25;6.08;;;;;;;8.30;83.53;97858.69;4379132;81;28533;-86
2022/12/10 04:40:51;;;;;;;10.45;6.55;;;;;;;7.98;86.11;97839.72;4383702;80;28552;-88
2022/12/10 04:46:52;;;;;;;10.53;6.53;;;;;;;8.08;85.61;97828.66;4386316;80;28493;-85
2022/12/10 04:52:53;;;;;;;10.48;6.70;;;;;;;8.19;85.60;97842.19;4384011;80;28485;-87
2022/12/10 04:58:57;;;;;;;13.83;7.90;;;;;;;8.05;87.00;97856.43;4356182;80;28517;-85
2022/12/10 05:04:58;;;;;;;12.03;7.37;;;;;;;7.96;88.12;97857.34;4374797;80;28589;-84
2022/12/10 05:11:15;;;;;;;13.80;8.08;;;;;;;7.78;88.91;97853.05;4384549;80;28541;-87
2022/12/10 05:17:16;;;;;;;15.13;8.73;;;;;;;7.91;89.08;97858.61;4383661;81;28581;-88
2022/12/10 05:23:29;;;;;;;13.35;8.15;;;;;;;7.84;89.86;97859.28;4368711;80;28502;-82
2022/12/10 05:29:33;;;;;;;11.30;7.37;;;;;;;8.00;88.17;97882.59;4375985;79;28538;-82
2022/12/10 05:35:34;;;;;;;13.10;7.67;;;;;;;8.06;88.69;97893.64;4367011;80;28507;-81
2022/12/10 05:41:37;;;;;;;12.95;8.05;;;;;;;7.99;87.71;97920.30;4364358;81;28568;-84
2022/12/10 05:47:39;;;;;;;13.93;8.33;;;;;;;8.02;88.60;97918.46;4438135;79;28484;-83
2022/12/10 05:53:40;;;;;;;16.97;8.95;;;;;;;8.12;88.19;97915.95;4438344;80;28575;-83
2022/12/10 05:59:42;;;;;;;13.22;8.55;;;;;;;8.22;86.39;97920.68;4435104;80;28602;-82
2022/12/10 06:05:43;;;;;;;14.73;9.23;;;;;;;8.06;87.21;97889.63;4450808;78;28486;-82
2022/12/10 06:11:44;;;;;;;15.93;9.23;;;;;;;8.06;86.86;97886.95;4368627;81;28529;-88
2022/12/10 06:17:45;;;;;;;18.20;9.90;;;;;;;8.15;86.78;97897.27;4370997;80;28647;-87
2022/12/10 06:23:48;;;;;;;13.13;8.58;;;;;;;8.17;87.34;97889.28;4365176;81;28537;-88
2022/12/10 06:29:51;;;;;;;15.90;8.83;;;;;;;7.89;88.76;97888.28;4362127;80;28512;-88
2022/12/10 06:35:53;;;;;;;16.20;8.85;;;;;;;8.22;87.26;97914.78;4374860;80;28505;-91
2022/12/10 06:41:54;;;;;;;16.97;9.58;;;;;;;8.11;87.00;97911.66;4379446;80;28493;-88
2022/12/10 06:47:55;;;;;;;20.15;11.40;;;;;;;8.18;86.45;97938.30;4380374;80;28607;-88
2022/12/10 06:53:56;;;;;;;14.93;10.05;;;;;;;8.25;85.99;97943.49;4356852;81;28875;-88
2022/12/10 06:59:58;;;;;;;15.93;9.80;;;;;;;8.16;86.13;97949.75;4373142;80;28619;-87
2022/12/10 07:06:00;;;;;;;16.35;9.70;;;;;;;8.16;84.93;97965.30;4380285;80;28482;-87
2022/12/10 07:12:01;;;;;;;16.90;10.48;;;;;;;8.24;84.71;97994.88;4378008;81;28485;-91
2022/12/10 07:18:04;;;;;;;19.37;10.75;;;;;;;8.41;83.80;97980.16;4342506;81;28589;-91
2022/12/10 07:24:07;;;;;;;22.67;12.95;;;;;;;8.39;84.68;97976.13;4366330;81;28536;-90
2022/12/10 07:30:09;;;;;;;27.87;15.00;;;;;;;8.28;84.59;97975.13;4431597;79;28546;-89
2022/12/10 07:36:12;;;;;;;29.02;15.18;;;;;;;8.17;84.70;97992.88;4443585;78;28557;-88
2022/12/10 07:42:13;;;;;;;31.35;15.88;;;;;;;8.30;84.76;97995.78;4421094;80;28517;-87
2022/12/10 07:48:14;;;;;;;30.08;15.65;;;;;;;8.31;84.72;97994.20;4438179;80;28529;-89
2022/12/10 07:54:17;;;;;;;30.05;15.28;;;;;;;8.39;82.46;97988.17;4371730;81;28477;-87
2022/12/10 08:00:18;;;;;;;30.02;15.03;;;;;;;8.40;83.08;97972.39;4368197;81;28579;-88
2022/12/10 08:06:21;;;;;;;27.65;15.10;;;;;;;8.55;81.36;97975.33;4444156;80;28609;-88
2022/12/10 08:12:22;;;;;;;26.20;14.03;;;;;;;8.75;79.73;97984.73;4445203;80;28516;-87
2022/12/10 08:18:23;;;;;;;24.95;13.50;;;;;;;8.53;80.17;97997.54;4350587;80;28508;-87
2022/12/10 08:24:25;;;;;;;23.32;13.00;;;;;;;8.43;81.59;98006.17;4355758;80;28609;-88
2022/12/10 08:30:25;;;;;;;26.82;13.95;;;;;;;8.31;82.54;98019.66;4441761;80;28518;-86
2022/12/10 08:36:27;;;;;;;24.77;13.38;;;;;;;8.37;82.54;98020.01;4338187;80;28571;-86
2022/12/10 08:42:28;;;;;;;21.45;12.20;;;;;;;8.40;81.90;98018.72;4440000;79;28541;-85
2022/12/10 08:48:29;;;;;;;19.27;11.22;;;;;;;8.67;81.02;98022.14;4353751;79;28596;-85
2022/12/10 08:54:30;;;;;;;17.85;10.43;;;;;;;8.91;77.58;98015.27;4307250;80;28540;-85
2022/12/10 09:00:32;;;;;;;19.15;10.82;;;;;;;8.79;77.79;98012.66;4367719;80;28587;-84
2022/12/10 09:06:34;;;;;;;18.52;11.35;;;;;;;9.07;76.70;98004.23;4374244;81;28517;-86
2022/12/10 09:12:35;;;;;;;18.32;10.98;;;;;;;9.29;74.68;98004.79;4385631;80;28626;-86
2022/12/10 09:18:36;;;;;;;19.05;11.28;;;;;;;8.85;76.40;98014.38;4447960;78;28535;-87
2022/12/10 09:24:37;;;;;;;18.67;10.58;;;;;;;9.00;77.05;98007.61;4373315;81;28563;-87
2022/12/10 09:30:39;;;;;;;20.92;11.60;;;;;;;8.77;77.85;98006.73;4415380;80;28521;-87
2022/12/10 09:36:40;;;;;;;19.65;11.40;;;;;;;8.76;78.77;97999.25;4386417;80;28498;-84
2022/12/10 09:43:00;;;;;;;19.37;11.45;;;;;;;9.03;77.39;97991.05;4452678;78;28525;-85
2022/12/10 09:49:07;;;;;;;19.17;11.63;;;;;;;9.27;76.46;97989.48;4346367;80;28517;-85
2022/12/10 09:55:21;;;;;;;17.55;11.05;;;;;;;9.11;77.20;97991.97;4389733;80;28515;-85
2022/12/10 10:01:25;;;;;;;18.42;11.28;;;;;;;9.22;75.07;97996.13;4376933;80;28586;-86
2022/12/10 10:07:28;;;;;;;22.02;12.03;;;;;;;9.18;75.57;97987.77;4451717;79;28571;-87
2022/12/10 10:13:45;;;;;;;19.40;11.33;;;;;;;9.06;76.22;97985.19;4364020;80;28510;-86
2022/12/10 10:19:46;;;;;;;20.85;11.00;;;;;;;9.06;76.92;97984.67;4357749;80;28519;-86
2022/12/10 10:25:47;;;;;;;17.87;10.53;;;;;;;9.08;76.59;97990.31;4356519;81;28556;-86
2022/12/10 10:31:52;;;;;;;17.75;10.70;;;;;;;9.08;76.60;97983.61;4358914;80;28528;-86
2022/12/10 10:38:00;;;;;;;16.45;10.60;;;;;;;8.91;77.67;97982.58;4437578;80;28549;-84
2022/12/10 10:44:10;;;;;;;16.48;10.43;;;;;;;9.23;76.44;97982.45;4414816;79;28489;-87
2022/12/10 10:50:12;;;;;;;16.65;10.28;;;;;;;8.79;77.54;97972.46;4359266;81;28522;-86
2022/12/10 10:56:17;;;;;;;17.87;11.38;;;;;;;8.83;76.79;97963.41;4373951;80;28515;-84
2022/12/10 11:02:36;;;;;;;18.25;10.72;;;;;;;9.15;76.10;97976.17;4407720;80;28534;-86
2022/12/10 11:08:42;;;;;;;17.05;9.93;;;;;;;8.98;76.76;97986.42;4335758;80;28517;-85
2022/12/10 11:14:44;;;;;;;16.52;10.35;;;;;;;8.61;77.04;97991.78;4374355;80;28511;-84
2022/12/10 11:20:49;;;;;;;16.32;9.75;;;;;;;8.65;77.13;97986.75;4359777;80;28510;-85
2022/12/10 11:27:04;;;;;;;15.70;10.48;;;;;;;8.54;77.18;97988.95;4341693;81;28559;-85
2022/12/10 11:33:15;;;;;;;16.20;10.32;;;;;;;8.34;77.48;97991.03;4362119;80;28517;-83
2022/12/10 11:39:37;;;;;;;16.85;10.58;;;;;;;8.31;78.62;97986.17;4351766;81;28494;-85
2022/12/10 11:45:57;;;;;;;17.23;10.65;;;;;;;8.17;78.15;97996.89;4351477;81;28547;-85
2022/12/10 11:52:11;;;;;;;16.57;10.23;;;;;;;7.75;81.60;97988.11;4359734;80;28497;-85
2022/12/10 11:58:16;;;;;;;17.17;10.55;;;;;;;8.20;80.43;97993.21;4363929;80;28488;-85
2022/12/10 12:04:42;;;;;;;17.32;10.50;;;;;;;7.99;81.27;97984.53;4433513;79;28571;-85
2022/12/10 12:10:47;;;;;;;18.87;11.15;;;;;;;7.36;83.64;97987.36;4360009;81;29155;-83
2022/12/10 12:17:06;;;;;;;19.52;11.20;;;;;;;7.80;81.80;97988.73;4370055;80;28605;-85
2022/12/10 12:23:16;;;;;;;21.37;11.73;;;;;;;7.50;84.68;97989.25;4365026;81;28508;-84
2022/12/10 12:29:29;;;;;;;20.08;11.30;;;;;;;7.57;83.20;97988.31;4354497;81;28581;-86
2022/12/10 12:35:37;;;;;;;18.70;11.03;;;;;;;6.93;86.43;97972.55;4357063;81;28525;-84
2022/12/10 12:41:45;;;;;;;18.23;10.95;;;;;;;7.22;86.12;97973.97;4361377;81;28559;-84
2022/12/10 12:47:58;;;;;;;18.42;11.78;;;;;;;7.55;84.79;97965.80;4354413;81;28553;-81
2022/12/10 12:54:00;;;;;;;23.80;12.85;;;;;;;7.07;87.31;97964.56;4357849;81;28531;-78
2022/12/10 13:00:07;;;;;;;23.22;12.35;;;;;;;7.48;87.90;97973.14;4377015;81;28521;-78
2022/12/10 13:06:15;;;;;;;26.17;14.95;;;;;;;7.35;86.04;97977.72;4374552;80;28530;-78
2022/12/10 13:12:29;;;;;;;24.67;13.62;;;;;;;7.17;87.45;97981.36;4372521;80;28620;-76
2022/12/10 13:18:36;;;;;;;22.82;12.90;;;;;;;7.37;87.49;97968.92;4344911;80;28636;-76
2022/12/10 13:24:47;;;;;;;24.72;13.93;;;;;;;6.88;89.66;97989.28;4333477;80;28511;-78
2022/12/10 13:31:15;;;;;;;29.72;14.65;;;;;;;7.36;88.12;97998.05;4317451;81;28521;-79
2022/12/10 13:37:20;;;;;;;28.17;14.47;;;;;;;7.70;87.28;98005.42;4362730;80;28569;-83
2022/12/10 13:49:53;;;;;;;33.38;15.15;;;;;;;7.50;87.01;98023.22;4350996;80;28520;-87
2022/12/10 13:56:09;;;;;;;33.18;15.32;;;;;;;7.46;87.33;98010.84;4332373;81;28508;-82
2022/12/10 14:02:38;;;;;;;31.45;14.07;;;;;;;7.05;89.66;98013.98;4343698;80;28598;-83
2022/12/10 14:08:41;;;;;;;30.15;15.35;;;;;;;7.00;89.74;98018.68;4307469;80;28942;-81
2022/12/10 14:14:45;;;;;;;33.33;15.35;;;;;;;7.20;90.80;98025.53;4255914;81;28635;-82
2022/12/10 14:20:50;;;;;;;32.95;14.78;;;;;;;7.50;89.07;98040.61;4265899;82;28527;-83
2022/12/10 14:27:13;;;;;;;30.62;14.47;;;;;;;6.76;90.70;98040.56;4284808;81;28634;-83
2022/12/10 14:33:18;;;;;;;37.13;16.25;;;;;;;7.44;88.78;98028.96;4296909;81;28555;-82
2022/12/10 14:39:22;;;;;;;34.80;15.75;;;;;;;7.25;89.75;98027.80;4288270;81;28549;-83
2022/12/10 14:45:23;;;;;;;35.78;15.55;;;;;;;6.75;91.64;98030.39;4359448;80;28534;-83
2022/12/10 14:51:26;;;;;;;37.25;16.60;;;;;;;6.64;93.58;98023.17;4347664;80;28499;-84
2022/12/10 14:57:37;;;;;;;36.98;15.55;;;;;;;6.94;92.36;98024.44;4336439;80;28548;-84
2022/12/10 15:03:43;;;;;;;29.90;13.78;;;;;;;7.52;89.55;98036.63;4394512;80;28526;-84
2022/12/10 15:09:46;;;;;;;28.80;13.23;;;;;;;6.59;93.30;98038.55;4359058;80;28528;-84
2022/12/10 15:15:49;;;;;;;36.50;15.40;;;;;;;6.89;91.87;98022.17;4357585;81;28524;-83
2022/12/10 15:22:01;;;;;;;32.63;14.53;;;;;;;7.03;92.04;98025.40;4364076;80;28611;-84
2022/12/10 15:28:03;;;;;;;35.45;15.28;;;;;;;6.74;92.50;98026.09;4355826;81;28466;-84
2022/12/10 15:34:11;;;;;;;41.95;16.23;;;;;;;6.45;94.93;98035.81;4355149;81;28521;-84
2022/12/10 15:40:29;;;;;;;37.38;15.08;;;;;;;6.76;94.37;98044.03;4443707;80;28603;-83
2022/12/10 15:46:30;;;;;;;36.40;14.10;;;;;;;7.00;92.66;98051.27;4400141;80;28574;-84
2022/12/10 15:52:32;;;;;;;38.28;15.25;;;;;;;6.56;94.84;98060.39;4388795;80;28552;-83
2022/12/10 15:58:33;;;;;;;42.50;16.30;;;;;;;7.28;92.27;98041.73;4353736;80;28527;-84
2022/12/10 16:04:35;;;;;;;39.90;15.35;;;;;;;6.64;96.16;98046.70;4356813;80;28520;-85
2022/12/10 16:10:36;;;;;;;34.43;13.53;;;;;;;6.26;100.00;98062.06;4372693;80;28563;-87
2022/12/10 16:16:37;;;;;;;39.30;16.42;;;;;;;6.59;95.42;98045.77;4439629;78;28597;-85
2022/12/10 16:22:38;;;;;;;43.23;17.37;;;;;;;6.40;97.77;98042.66;4375528;80;28598;-85
2022/12/10 16:28:39;;;;;;;39.88;15.75;;;;;;;6.09;100.00;98038.38;4362882;81;28520;-84
2022/12/10 16:34:40;;;;;;;44.38;16.87;;;;;;;6.51;98.20;98033.57;4379645;80;28572;-85
2022/12/10 16:40:43;;;;;;;37.88;15.55;;;;;;;6.97;96.50;98026.64;4349257;81;28482;-84
2022/12/10 16:46:44;;;;;;;38.92;16.65;;;;;;;6.71;95.03;98031.91;4350883;81;28529;-84
2022/12/10 16:52:46;;;;;;;40.58;16.48;;;;;;;6.63;97.80;98023.72;4359988;80;28513;-80
2022/12/10 16:58:47;;;;;;;35.45;14.40;;;;;;;6.81;95.98;98024.64;4371653;80;28606;-81
2022/12/10 17:04:48;;;;;;;36.63;15.95;;;;;;;6.79;94.57;98026.23;4398634;80;28528;-80
2022/12/10 17:17:13;;;;;;;30.50;14.38;;;;;;;6.65;96.67;98028.30;4346372;81;28558;-81
2022/12/10 17:23:14;;;;;;;32.70;14.35;;;;;;;6.38;100.00;98026.03;4349142;81;28479;-81
2022/12/10 17:29:25;;;;;;;28.55;13.10;;;;;;;6.44;99.58;98031.52;4349145;80;28511;-86
2022/12/10 17:35:26;;;;;;;31.50;12.65;;;;;;;6.32;99.07;98034.97;4354897;81;28499;-80
2022/12/10 17:41:27;;;;;;;30.52;13.35;;;;;;;5.80;100.00;98019.42;4347067;80;28555;-81
2022/12/10 17:47:31;;;;;;;29.72;12.33;;;;;;;6.09;100.00;98013.84;4350488;81;28543;-81
2022/12/10 17:53:32;;;;;;;33.85;14.40;;;;;;;5.64;100.00;98018.19;4346896;81;28558;-81
2022/12/10 17:59:33;;;;;;;38.55;14.95;;;;;;;5.99;100.00;98016.22;4370220;80;28571;-81
2022/12/10 18:05:36;;;;;;;35.78;14.00;;;;;;;6.20;100.00;98007.44;4340072;80;28555;-82
2022/12/10 18:11:40;;;;;;;35.08;14.45;;;;;;;6.24;100.00;98002.72;4355838;80;28585;-82
2022/12/10 18:17:41;;;;;;;30.62;12.15;;;;;;;6.14;100.00;98011.30;4374728;80;28525;-81
2022/12/10 18:23:44;;;;;;;38.67;15.55;;;;;;;5.53;100.00;98013.90;4353758;80;28497;-82
2022/12/10 18:29:45;;;;;;;41.77;15.23;;;;;;;6.87;100.00;98009.03;4362168;80;28537;-81
2022/12/10 18:35:52;;;;;;;35.65;14.33;;;;;;;6.06;100.00;98006.81;4370120;80;28487;-82
2022/12/10 18:41:52;;;;;;;35.48;14.05;;;;;;;6.14;100.00;98015.80;4372709;80;28521;-81
2022/12/10 18:47:53;;;;;;;41.80;14.70;;;;;;;6.07;100.00;98009.77;4373701;80;28515;-81
2022/12/10 18:53:54;;;;;;;39.80;14.10;;;;;;;6.25;100.00;98009.72;4371621;81;28579;-82
2022/12/10 18:59:55;;;;;;;40.52;14.87;;;;;;;6.21;100.00;98005.06;4367585;80;28505;-82
2022/12/10 19:05:56;;;;;;;35.92;13.83;;;;;;;6.21;100.00;98023.20;4358365;80;28503;-83
2022/12/10 19:11:59;;;;;;;33.02;13.35;;;;;;;6.18;100.00;98022.84;4354418;80;28571;-88
2022/12/10 19:18:03;;;;;;;36.60;14.75;;;;;;;5.80;100.00;98015.42;4369716;81;28508;-83
2022/12/10 19:24:07;;;;;;;39.05;13.62;;;;;;;6.20;100.00;98015.45;4355422;81;28532;-86
2022/12/10 19:30:15;;;;;;;35.92;13.50;;;;;;;6.37;100.00;98009.72;4356266;80;28597;-86
2022/12/10 19:36:25;;;;;;;30.90;12.15;;;;;;;6.47;100.00;98007.84;4349232;81;28530;-84
2022/12/10 19:42:28;;;;;;;33.80;13.68;;;;;;;5.93;100.00;98022.44;4350549;80;28531;-87
2022/12/10 19:48:29;;;;;;;28.45;12.37;;;;;;;6.05;100.00;98023.33;4327085;81;28548;-87
2022/12/10 19:54:38;;;;;;;33.92;13.55;;;;;;;5.76;100.00;98024.39;4355835;81;28555;-84
2022/12/10 20:00:36;;;;;;;30.70;12.68;;;;;;;6.47;100.00;98011.84;4351434;80;28489;-85
2022/12/10 20:06:40;;;;;;;33.48;12.82;;;;;;;6.26;100.00;98014.52;4372345;80;28555;-82
2022/12/10 20:12:50;;;;;;;30.88;12.73;;;;;;;6.25;100.00;98005.71;4364456;80;28534;-86
2022/12/10 20:18:46;;;;;;;31.07;12.50;;;;;;;6.33;100.00;98007.73;4362554;80;28516;-82
2022/12/10 20:24:49;;;;;;;23.65;9.75;;;;;;;6.54;100.00;97987.70;4349287;80;28544;-83
2022/12/10 20:30:51;;;;;;;33.67;13.95;;;;;;;5.53;100.00;97980.58;4357983;81;28456;-87
2022/12/10 20:36:53;;;;;;;28.75;13.00;;;;;;;5.80;100.00;97966.08;4370064;80;28521;-86
2022/12/10 20:42:54;;;;;;;32.17;12.98;;;;;;;6.12;100.00;97974.69;4351371;80;28537;-84
2022/12/10 20:48:57;;;;;;;31.17;12.63;;;;;;;6.00;100.00;97972.48;4364022;80;28531;-84
2022/12/10 20:54:58;;;;;;;29.32;11.40;;;;;;;5.35;100.00;97979.25;4376796;80;28552;-82
2022/12/10 21:01:00;;;;;;;25.23;10.90;;;;;;;5.66;100.00;97975.59;4370227;80;28532;-83
2022/12/10 21:07:01;;;;;;;24.92;11.43;;;;;;;4.98;100.00;97974.23;4359449;79;28545;-82
2022/12/10 21:13:04;;;;;;;21.87;10.60;;;;;;;5.07;100.00;97955.30;4385512;80;28578;-85
2022/12/10 21:19:05;;;;;;;29.92;12.80;;;;;;;5.11;100.00;97946.64;4363072;81;28517;-82
2022/12/10 21:25:11;;;;;;;28.60;11.90;;;;;;;5.60;100.00;97954.36;4381770;80;28552;-82
2022/12/10 21:31:16;;;;;;;27.42;11.43;;;;;;;5.08;100.00;97951.59;4389330;80;28462;-83
2022/12/10 21:37:17;;;;;;;25.62;11.93;;;;;;;4.74;100.00;97961.25;4376450;80;28600;-83
2022/12/10 21:43:22;;;;;;;24.55;10.70;;;;;;;5.36;100.00;97962.22;4376816;81;28648;-83
2022/12/10 21:49:24;;;;;;;24.02;11.25;;;;;;;5.25;100.00;97961.93;4378493;80;28506;-82
2022/12/10 21:55:26;;;;;;;26.07;11.95;;;;;;;5.36;100.00;97961.71;4356752;80;28462;-83
2022/12/10 22:01:27;;;;;;;25.25;11.48;;;;;;;5.40;100.00;97947.42;4364222;80;28934;-82
2022/12/10 22:07:28;;;;;;;29.50;12.13;;;;;;;5.20;100.00;97944.48;4359500;80;28964;-82
2022/12/10 22:13:29;;;;;;;29.10;13.18;;;;;;;4.97;100.00;97947.80;4361495;80;28559;-81
2022/12/10 22:19:30;;;;;;;31.95;13.25;;;;;;;4.94;100.00;97940.26;4371574;80;28523;-81
2022/12/10 22:25:33;;;;;;;31.55;13.75;;;;;;;5.23;100.00;97936.02;4356551;80;28576;-81
2022/12/10 22:31:35;;;;;;;33.30;15.00;;;;;;;5.13;100.00;97935.73;4365331;81;28590;-81
2022/12/10 22:37:36;;;;;;;30.97;12.73;;;;;;;5.66;100.00;97940.92;4367063;80;28508;-81
2022/12/10 22:43:37;;;;;;;30.92;13.85;;;;;;;5.50;100.00;97929.05;4373674;80;28537;-82
2022/12/10 22:49:39;;;;;;;32.28;13.70;;;;;;;5.30;100.00;97926.11;4371921;81;28564;-83
2022/12/10 22:55:40;;;;;;;27.25;11.78;;;;;;;5.76;100.00;97922.23;4377584;81;28517;-82
2022/12/10 23:01:41;;;;;;;26.70;11.85;;;;;;;5.69;100.00;97913.00;4470407;78;28531;-83
2022/12/10 23:07:43;;;;;;;34.08;13.78;;;;;;;5.21;100.00;97919.45;4355908;80;28603;-84
2022/12/10 23:13:44;;;;;;;31.17;13.50;;;;;;;4.82;100.00;97917.53;4288110;81;28576;-83
2022/12/10 23:19:45;;;;;;;29.72;13.25;;;;;;;5.09;100.00;97919.38;4331605;80;28493;-82
2022/12/10 23:25:47;;;;;;;33.05;13.62;;;;;;;5.48;100.00;97889.80;4382146;80;28501;-83
2022/12/10 23:31:48;;;;;;;30.23;13.30;;;;;;;5.38;100.00;97892.19;4377885;80;28578;-82
2022/12/10 23:37:49;;;;;;;29.23;12.98;;;;;;;5.52;100.00;97876.30;4383616;80;28589;-84
2022/12/10 23:43:50;;;;;;;25.62;11.88;;;;;;;5.55;100.00;97862.50;4443665;79;28501;-83
2022/12/10 23:49:52;;;;;;;26.52;12.50;;;;;;;5.66;100.00;97859.59;4358039;80;28509;-83
2022/12/10 23:55:55;;;;;;;26.02;10.55;;;;;;;5.95;100.00;97854.95;4358015;80;28532;-83
